Time;durP1;ratioP1;P1;durP2;ratioP2;P2;SDS_P1;SDS_P2;PMS_P1;PMS_P2;Temp;Humidity;BMP_temperature;BMP_pressure;BME280_temperature;BME280_humidity;BME280_pressure;Samples;Min_cycle;Max_cycle;Signal;HPM_P1;HPM_P2
2021/05/19 00:01:39;;;;;;;7.28;3.92;;;13.50;70.00;;;;;;5051907;28;20033;-72
2021/05/19 00:04:06;;;;;;;6.78;3.50;;;13.40;70.20;;;;;;5052240;28;20123;-72
2021/05/19 00:06:33;;;;;;;6.85;3.67;;;13.40;70.20;;;;;;5056677;28;20024;-72
2021/05/19 00:08:59;;;;;;;7.38;3.75;;;13.40;70.30;;;;;;5053624;28;20121;-72
2021/05/19 00:11:26;;;;;;;6.57;3.33;;;13.40;70.30;;;;;;5074836;28;20033;-71
2021/05/19 00:13:52;;;;;;;6.55;3.78;;;13.40;70.30;;;;;;5058248;28;20044;-72
2021/05/19 00:16:18;;;;;;;7.47;3.75;;;13.30;70.30;;;;;;5052021;28;20045;-72
2021/05/19 00:18:44;;;;;;;8.90;4.82;;;13.30;70.40;;;;;;5058111;28;20463;-72
2021/05/19 00:21:10;;;;;;;7.03;3.42;;;13.30;70.40;;;;;;5070374;28;20045;-71
2021/05/19 00:23:36;;;;;;;7.18;4.00;;;13.30;70.50;;;;;;5071377;28;20531;-72
2021/05/19 00:26:02;;;;;;;6.50;3.45;;;13.20;70.40;;;;;;5068742;28;20119;-72
2021/05/19 00:28:28;;;;;;;8.20;3.30;;;13.30;70.60;;;;;;5045742;28;20049;-72
2021/05/19 00:30:57;;;;;;;8.20;3.95;;;13.20;70.70;;;;;;5052222;28;20450;-72
2021/05/19 00:33:23;;;;;;;5.95;3.13;;;13.20;70.70;;;;;;5058008;28;20055;-72
2021/05/19 00:35:49;;;;;;;7.75;3.10;;;13.10;70.70;;;;;;5052218;28;20025;-72
2021/05/19 00:38:15;;;;;;;5.40;3.20;;;13.10;70.80;;;;;;5048378;28;20036;-72
2021/05/19 00:40:41;;;;;;;9.40;3.38;;;13.10;70.80;;;;;;5064283;28;20054;-71
2021/05/19 00:43:06;;;;;;;8.30;4.07;;;13.10;70.90;;;;;;5052785;28;20033;-72
2021/05/19 00:45:32;;;;;;;5.85;3.58;;;13.10;70.90;;;;;;5043380;28;20047;-71
2021/05/19 00:47:59;;;;;;;7.22;3.65;;;13.10;71.00;;;;;;5068393;28;20037;-72
2021/05/19 00:50:27;;;;;;;7.38;3.90;;;13.10;71.10;;;;;;5052010;28;20037;-71
2021/05/19 00:52:53;;;;;;;6.55;3.25;;;13.00;71.10;;;;;;5052173;28;20064;-72
2021/05/19 00:55:19;;;;;;;10.68;4.03;;;13.10;71.10;;;;;;5087951;28;20048;-71
2021/05/19 00:57:46;;;;;;;6.25;3.38;;;13.00;71.10;;;;;;5052978;28;20024;-72
2021/05/19 01:00:14;;;;;;;7.13;3.80;;;13.00;71.10;;;;;;5069132;28;20037;-72
2021/05/19 01:02:40;;;;;;;7.90;3.92;;;13.00;71.20;;;;;;5051038;28;20043;-71
2021/05/19 01:05:14;;;;;;;6.28;3.65;;;13.00;71.30;;;;;;5067732;28;20048;-71
2021/05/19 01:09:34;;;;;;;9.68;4.15;;;12.90;71.40;;;;;;5052182;28;20110;-72
2021/05/19 01:10:25;;;;;;;7.13;4.07;;;12.90;71.50;;;;;;5057861;28;20120;-72
2021/05/19 01:12:51;;;;;;;6.90;3.75;;;12.90;71.50;;;;;;5066850;28;20112;-72
2021/05/19 01:15:17;;;;;;;7.57;3.72;;;12.90;71.70;;;;;;5070471;28;20502;-72
2021/05/19 01:17:43;;;;;;;6.68;3.13;;;12.90;71.80;;;;;;5051881;28;20028;-72
2021/05/19 01:20:10;;;;;;;6.95;3.90;;;12.90;71.90;;;;;;5051973;28;20033;-72
2021/05/19 01:22:36;;;;;;;8.20;4.18;;;12.90;71.90;;;;;;5058671;28;20040;-72
2021/05/19 01:25:03;;;;;;;7.72;3.92;;;12.90;71.90;;;;;;5068918;28;20044;-72
2021/05/19 01:27:29;;;;;;;6.32;3.58;;;13.00;72.10;;;;;;5099798;28;20058;-72
2021/05/19 01:29:57;;;;;;;7.18;4.03;;;13.00;72.10;;;;;;5050224;28;20439;-72
2021/05/19 01:32:23;;;;;;;7.60;4.35;;;13.00;72.20;;;;;;5051525;28;20198;-72
2021/05/19 01:34:49;;;;;;;7.65;3.90;;;13.10;72.30;;;;;;5051175;28;20045;-72
2021/05/19 01:37:16;;;;;;;7.45;4.53;;;13.10;72.40;;;;;;5058500;28;20032;-72
2021/05/19 01:39:43;;;;;;;6.75;4.38;;;13.10;72.40;;;;;;5070403;28;20150;-72
2021/05/19 01:42:09;;;;;;;6.82;4.13;;;13.20;72.40;;;;;;5062958;28;20040;-72
2021/05/19 01:44:36;;;;;;;6.00;3.47;;;13.20;72.50;;;;;;5048934;28;20056;-72
2021/05/19 01:47:04;;;;;;;7.43;4.13;;;13.20;72.40;;;;;;5064458;28;20518;-72
2021/05/19 01:49:31;;;;;;;8.38;3.97;;;13.30;72.50;;;;;;5067580;28;20033;-72
2021/05/19 01:52:00;;;;;;;7.43;4.75;;;13.30;72.50;;;;;;5053061;28;20040;-73
2021/05/19 01:54:28;;;;;;;8.32;4.38;;;13.30;72.50;;;;;;5049634;28;20037;-73
2021/05/19 01:56:54;;;;;;;7.13;4.38;;;13.30;72.50;;;;;;5060517;28;20025;-73
2021/05/19 01:59:20;;;;;;;8.25;4.68;;;13.20;72.40;;;;;;5052784;28;20197;-73
2021/05/19 02:01:46;;;;;;;7.68;4.07;;;13.20;72.50;;;;;;5062349;28;20124;-73
2021/05/19 02:04:16;;;;;;;7.15;4.45;;;13.20;72.50;;;;;;5064190;28;20127;-73
2021/05/19 02:06:49;;;;;;;9.40;4.85;;;13.10;72.30;;;;;;5044966;28;20461;-73
2021/05/19 02:09:17;;;;;;;7.75;4.25;;;13.10;73.00;;;;;;5064753;28;20071;-73
2021/05/19 02:11:43;;;;;;;6.63;4.55;;;13.10;72.30;;;;;;5083413;28;20443;-72
2021/05/19 02:14:09;;;;;;;7.75;4.65;;;13.10;72.40;;;;;;5049265;28;20037;-73
2021/05/19 02:16:35;;;;;;;7.55;4.80;;;13.00;72.30;;;;;;5067329;28;20086;-72
2021/05/19 02:19:00;;;;;;;8.05;5.35;;;13.00;72.50;;;;;;5057357;28;20420;-73
2021/05/19 02:21:26;;;;;;;9.60;6.13;;;12.90;72.60;;;;;;5048856;28;20060;-73
2021/05/19 02:23:52;;;;;;;13.48;7.18;;;12.90;72.70;;;;;;5048620;28;20564;-72
2021/05/19 02:26:19;;;;;;;9.63;5.43;;;12.90;72.80;;;;;;5053200;28;20056;-72
2021/05/19 02:28:46;;;;;;;10.50;5.60;;;12.90;72.80;;;;;;5057077;28;20074;-72
2021/05/19 02:31:12;;;;;;;12.10;7.38;;;12.80;72.70;;;;;;5063003;28;20040;-72
2021/05/19 02:33:38;;;;;;;10.88;6.47;;;12.80;72.70;;;;;;5053532;28;20031;-72
2021/05/19 02:36:04;;;;;;;13.02;6.30;;;12.80;72.70;;;;;;5067531;28;20107;-73
2021/05/19 02:38:31;;;;;;;10.57;6.25;;;12.80;72.60;;;;;;5043225;28;20482;-72
2021/05/19 02:40:56;;;;;;;12.68;7.10;;;12.70;72.60;;;;;;5062435;28;20103;-72
2021/05/19 02:43:23;;;;;;;12.63;7.50;;;12.70;72.70;;;;;;5037617;28;20119;-72
2021/05/19 02:45:49;;;;;;;9.73;5.90;;;12.70;72.80;;;;;;5081384;28;20133;-72
2021/05/19 02:48:15;;;;;;;10.75;6.30;;;12.70;72.80;;;;;;5051656;28;20024;-72
2021/05/19 02:50:40;;;;;;;10.60;6.13;;;12.70;72.80;;;;;;5048956;28;20090;-72
2021/05/19 02:53:06;;;;;;;13.57;6.60;;;12.70;72.50;;;;;;5049206;28;20033;-72
2021/05/19 02:55:32;;;;;;;11.10;6.88;;;12.60;72.90;;;;;;5062583;28;20042;-72
2021/05/19 02:57:58;;;;;;;13.02;6.78;;;12.60;72.80;;;;;;5054933;28;20041;-72
2021/05/19 03:00:24;;;;;;;12.05;6.68;;;12.60;72.80;;;;;;5049438;28;20493;-72
2021/05/19 03:02:49;;;;;;;10.43;7.28;;;12.50;72.80;;;;;;5057179;28;20037;-72
2021/05/19 03:05:15;;;;;;;10.90;7.40;;;12.50;72.90;;;;;;5047775;28;20090;-72
2021/05/19 03:07:41;;;;;;;12.32;7.30;;;12.50;73.10;;;;;;5054614;28;20128;-72
2021/05/19 03:10:07;;;;;;;11.68;8.05;;;12.50;73.20;;;;;;5058778;28;20480;-72
2021/05/19 03:12:34;;;;;;;12.63;8.75;;;12.50;73.40;;;;;;5032238;28;20033;-72
2021/05/19 03:15:00;;;;;;;12.90;8.95;;;12.50;73.60;;;;;;5057874;28;20033;-72
2021/05/19 03:17:25;;;;;;;13.18;8.70;;;12.60;73.80;;;;;;5057257;28;20036;-72
2021/05/19 03:19:51;;;;;;;15.15;9.77;;;12.60;73.80;;;;;;5048451;28;20025;-72
2021/05/19 03:22:17;;;;;;;13.27;8.70;;;12.60;73.90;;;;;;5051643;28;20095;-72
2021/05/19 03:24:43;;;;;;;13.68;8.40;;;12.70;74.00;;;;;;5049576;28;20051;-73
2021/05/19 03:27:09;;;;;;;14.23;9.82;;;12.70;74.00;;;;;;5065195;28;20047;-73
2021/05/19 03:29:35;;;;;;;14.52;9.90;;;12.70;74.00;;;;;;5070909;28;20028;-72
2021/05/19 03:32:01;;;;;;;14.75;8.98;;;12.80;74.10;;;;;;5059831;28;20037;-73
2021/05/19 03:34:27;;;;;;;16.20;10.25;;;12.80;74.10;;;;;;5064800;28;20032;-72
2021/05/19 03:36:52;;;;;;;14.23;10.18;;;12.80;74.20;;;;;;5071307;28;20532;-72
2021/05/19 03:39:18;;;;;;;11.40;9.05;;;12.80;74.30;;;;;;5061047;28;20040;-72
2021/05/19 03:41:44;;;;;;;15.07;10.55;;;12.90;74.30;;;;;;5068463;28;20487;-72
2021/05/19 03:44:10;;;;;;;12.82;8.82;;;12.90;74.30;;;;;;5062717;28;20032;-73
2021/05/19 03:46:36;;;;;;;14.43;10.52;;;12.90;74.30;;;;;;5058973;28;20033;-72
2021/05/19 03:49:03;;;;;;;14.02;9.95;;;12.90;74.20;;;;;;5072095;28;20033;-72
2021/05/19 03:51:30;;;;;;;13.80;9.43;;;12.90;74.20;;;;;;5060874;28;20797;-73
2021/05/19 03:53:56;;;;;;;12.57;9.68;;;13.00;74.30;;;;;;5053147;28;20382;-72
2021/05/19 03:56:22;;;;;;;14.90;9.90;;;13.10;74.20;;;;;;5056880;28;20621;-72
2021/05/19 03:58:48;;;;;;;14.80;10.65;;;13.10;74.20;;;;;;5050981;28;20044;-72
2021/05/19 04:01:14;;;;;;;15.23;10.85;;;13.20;74.20;;;;;;5055137;28;20052;-72
2021/05/19 04:03:40;;;;;;;13.25;10.65;;;13.20;74.20;;;;;;5060085;28;20436;-73
2021/05/19 04:06:06;;;;;;;15.30;10.77;;;13.30;74.10;;;;;;5067901;28;20037;-72
2021/05/19 04:08:35;;;;;;;14.77;9.63;;;13.30;74.10;;;;;;5085233;28;20457;-72
2021/05/19 04:11:01;;;;;;;15.15;10.48;;;13.40;74.10;;;;;;5053431;28;20025;-72
2021/05/19 04:13:27;;;;;;;14.30;10.05;;;13.40;74.00;;;;;;5045768;28;20028;-73
2021/05/19 04:15:53;;;;;;;14.55;9.75;;;13.50;73.90;;;;;;5053429;28;20086;-73
2021/05/19 04:18:19;;;;;;;17.33;10.45;;;13.50;73.80;;;;;;5059618;28;20116;-73
2021/05/19 04:20:45;;;;;;;13.77;9.75;;;13.60;73.80;;;;;;5048446;28;20118;-73
2021/05/19 04:23:10;;;;;;;14.90;10.23;;;13.50;73.60;;;;;;5072781;28;20381;-73
2021/05/19 04:25:36;;;;;;;12.32;10.18;;;13.60;73.50;;;;;;5070341;28;20547;-74
2021/05/19 04:28:03;;;;;;;12.82;9.95;;;13.60;73.50;;;;;;5052672;28;20037;-73
2021/05/19 04:30:29;;;;;;;12.52;9.45;;;13.70;73.50;;;;;;5050451;28;20036;-73
2021/05/19 04:32:55;;;;;;;14.07;9.70;;;13.70;73.50;;;;;;5034853;28;20456;-73
2021/05/19 04:35:21;;;;;;;13.63;10.75;;;13.70;73.40;;;;;;5033870;28;20044;-73
2021/05/19 04:37:46;;;;;;;13.02;9.15;;;13.80;73.30;;;;;;5065903;28;20039;-73
2021/05/19 04:40:13;;;;;;;12.40;8.43;;;13.80;73.30;;;;;;5064944;28;20072;-73
2021/05/19 04:42:38;;;;;;;13.23;9.25;;;13.80;73.30;;;;;;5077308;28;20068;-75
2021/05/19 04:45:05;;;;;;;14.23;9.80;;;13.80;73.20;;;;;;5069310;28;20843;-73
2021/05/19 04:47:31;;;;;;;13.40;9.00;;;13.80;73.20;;;;;;5051927;28;20451;-73
2021/05/19 04:49:57;;;;;;;13.73;10.07;;;13.80;73.10;;;;;;5050926;28;20037;-73
2021/05/19 04:52:23;;;;;;;12.10;8.32;;;13.90;73.10;;;;;;5063969;28;20104;-73
2021/05/19 04:54:49;;;;;;;13.77;9.80;;;13.90;73.10;;;;;;5064379;28;20029;-74
2021/05/19 04:57:17;;;;;;;14.63;10.27;;;13.90;73.10;;;;;;5060087;28;20029;-77
2021/05/19 04:59:42;;;;;;;14.85;9.88;;;13.90;73.00;;;;;;5070290;28;20037;-74
2021/05/19 05:02:09;;;;;;;16.63;10.20;;;13.90;73.00;;;;;;5052232;28;20091;-75
2021/05/19 05:04:34;;;;;;;11.80;9.00;;;13.90;73.00;;;;;;5050418;28;20044;-76
2021/05/19 05:07:03;;;;;;;11.88;7.68;;;14.00;73.10;;;;;;5057216;28;20024;-75
2021/05/19 05:09:29;;;;;;;11.48;8.80;;;14.00;73.10;;;;;;5054076;28;20520;-75
2021/05/19 05:11:54;;;;;;;13.38;9.40;;;14.00;73.10;;;;;;5077956;28;20029;-74
2021/05/19 05:14:21;;;;;;;15.00;9.35;;;14.00;73.10;;;;;;5070016;28;20143;-75
2021/05/19 05:16:48;;;;;;;12.95;9.88;;;14.10;73.10;;;;;;5057872;28;20033;-76
2021/05/19 05:19:14;;;;;;;13.68;9.05;;;14.10;73.10;;;;;;5069887;28;20040;-74
2021/05/19 05:21:40;;;;;;;13.23;9.65;;;14.10;73.00;;;;;;5053600;28;20028;-74
2021/05/19 05:24:06;;;;;;;13.18;10.15;;;14.20;73.00;;;;;;5064330;28;20025;-75
2021/05/19 05:26:32;;;;;;;11.57;9.35;;;14.20;73.00;;;;;;5065843;28;20032;-74
2021/05/19 05:28:58;;;;;;;14.68;11.15;;;14.30;73.10;;;;;;5056984;28;20782;-74
2021/05/19 05:31:24;;;;;;;13.85;10.70;;;14.30;73.00;;;;;;5053871;28;20029;-73
2021/05/19 05:33:50;;;;;;;13.80;10.77;;;14.40;72.90;;;;;;5067673;28;20051;-74
2021/05/19 05:36:16;;;;;;;15.07;9.73;;;14.40;72.70;;;;;;5069783;28;20036;-74
2021/05/19 05:38:42;;;;;;;14.50;10.35;;;14.40;72.70;;;;;;5058086;28;20357;-74
2021/05/19 05:41:08;;;;;;;12.93;10.20;;;14.40;72.80;;;;;;5065981;28;20036;-74
2021/05/19 05:43:34;;;;;;;12.02;10.60;;;14.50;72.90;;;;;;5049850;28;20031;-75
2021/05/19 05:46:00;;;;;;;16.63;10.75;;;14.50;72.80;;;;;;5055911;28;20044;-74
2021/05/19 05:48:25;;;;;;;14.93;10.45;;;14.60;72.70;;;;;;5045842;28;20075;-74
2021/05/19 05:50:51;;;;;;;15.88;11.65;;;14.60;72.60;;;;;;5052494;28;20032;-75
2021/05/19 05:53:17;;;;;;;15.77;10.80;;;14.70;72.60;;;;;;5052204;28;20459;-75
2021/05/19 05:55:42;;;;;;;15.77;10.50;;;14.70;72.50;;;;;;5054256;28;20045;-75
2021/05/19 05:58:08;;;;;;;16.23;11.57;;;14.80;73.10;;;;;;5071466;28;20123;-75
2021/05/19 06:00:36;;;;;;;16.08;11.07;;;14.80;72.30;;;;;;5073606;28;20028;-75
2021/05/19 06:03:03;;;;;;;21.67;12.07;;;14.90;72.20;;;;;;5043610;28;20036;-75
2021/05/19 06:05:28;;;;;;;17.00;12.20;;;15.00;72.20;;;;;;5056863;28;20090;-75
2021/05/19 06:07:54;;;;;;;17.63;11.77;;;15.10;72.00;;;;;;5078677;28;20025;-75
2021/05/19 06:10:19;;;;;;;15.65;11.40;;;15.20;72.00;;;;;;5055771;28;20390;-75
2021/05/19 06:12:45;;;;;;;15.48;11.10;;;15.30;71.80;;;;;;5048755;28;20037;-74
2021/05/19 06:15:11;;;;;;;17.33;13.07;;;15.40;71.60;;;;;;5068460;28;20055;-74
2021/05/19 06:17:37;;;;;;;14.23;10.50;;;15.50;71.50;;;;;;5068492;28;20051;-75
2021/05/19 06:20:03;;;;;;;17.35;11.60;;;15.60;71.30;;;;;;5069163;28;20455;-74
2021/05/19 06:22:29;;;;;;;16.42;11.35;;;15.90;70.90;;;;;;5051458;28;20037;-74
2021/05/19 06:24:55;;;;;;;17.50;11.15;;;16.20;70.20;;;;;;5060224;28;20420;-74
2021/05/19 06:27:22;;;;;;;14.23;10.85;;;16.40;69.20;;;;;;5079409;28;20025;-74
2021/05/19 06:29:47;;;;;;;14.45;11.50;;;16.60;69.00;;;;;;5036832;28;20033;-73
2021/05/19 06:32:13;;;;;;;15.65;11.70;;;16.80;68.80;;;;;;5069527;28;20033;-73
2021/05/19 06:34:38;;;;;;;18.40;11.00;;;17.00;68.30;;;;;;5069652;28;20036;-73
2021/05/19 06:37:05;;;;;;;18.10;11.30;;;17.40;67.60;;;;;;5067617;28;20033;-74
2021/05/19 06:39:31;;;;;;;19.42;11.93;;;17.60;66.40;;;;;;5060909;28;20025;-74
2021/05/19 06:41:56;;;;;;;17.10;12.60;;;17.60;66.00;;;;;;5058832;28;20393;-74
2021/05/19 06:44:22;;;;;;;17.05;11.55;;;17.60;66.00;;;;;;5047767;28;20041;-74
2021/05/19 06:46:48;;;;;;;14.43;12.07;;;17.40;66.10;;;;;;5064710;28;20182;-74
2021/05/19 06:49:13;;;;;;;18.23;13.07;;;17.30;66.50;;;;;;5061750;28;20029;-74
2021/05/19 06:51:42;;;;;;;20.52;13.23;;;17.10;66.70;;;;;;5059915;28;20123;-74
2021/05/19 06:54:09;;;;;;;20.15;12.70;;;17.10;67.00;;;;;;5065117;28;20037;-74
2021/05/19 06:56:34;;;;;;;18.30;13.25;;;17.00;67.30;;;;;;5061780;28;20497;-75
2021/05/19 06:59:01;;;;;;;15.73;12.50;;;17.10;67.20;;;;;;5059664;28;20028;-74
2021/05/19 07:01:27;;;;;;;18.15;13.05;;;17.00;67.40;;;;;;5062317;28;20038;-74
2021/05/19 07:03:53;;;;;;;17.83;13.20;;;17.00;67.40;;;;;;5062354;28;20044;-76
2021/05/19 07:06:20;;;;;;;27.00;14.27;;;16.90;68.00;;;;;;5062417;28;20048;-75
2021/05/19 07:08:47;;;;;;;22.00;15.27;;;16.80;68.30;;;;;;5069323;28;20045;-75
2021/05/19 07:11:13;;;;;;;19.40;14.63;;;16.80;68.60;;;;;;5061458;28;20088;-75
2021/05/19 07:13:39;;;;;;;18.98;13.90;;;16.80;68.90;;;;;;5047982;28;20517;-75
2021/05/19 07:16:05;;;;;;;21.45;15.38;;;16.80;68.80;;;;;;5063053;28;20328;-75
2021/05/19 07:18:31;;;;;;;22.48;15.38;;;16.80;68.90;;;;;;5069741;28;20051;-75
2021/05/19 07:20:57;;;;;;;19.67;14.38;;;16.90;68.90;;;;;;5068635;28;20044;-75
2021/05/19 07:23:23;;;;;;;22.48;14.40;;;16.90;68.90;;;;;;5061111;28;20033;-75
2021/05/19 07:25:50;;;;;;;20.45;15.07;;;17.00;68.80;;;;;;5049721;28;20340;-75
2021/05/19 07:28:15;;;;;;;24.85;15.63;;;17.00;68.80;;;;;;5048323;28;20138;-75
2021/05/19 07:30:43;;;;;;;22.17;16.05;;;17.00;68.80;;;;;;5062254;28;20124;-75
2021/05/19 07:33:10;;;;;;;31.02;16.05;;;17.10;68.80;;;;;;5061049;28;20059;-75
2021/05/19 07:35:37;;;;;;;25.77;17.15;;;17.10;68.80;;;;;;5060615;28;20107;-75
2021/05/19 07:38:05;;;;;;;23.02;14.70;;;17.10;69.00;;;;;;5048697;28;20045;-74
2021/05/19 07:40:31;;;;;;;23.88;15.55;;;17.10;68.80;;;;;;5063109;28;20033;-74
2021/05/19 07:42:57;;;;;;;24.73;15.70;;;17.00;68.80;;;;;;5045701;28;20502;-74
2021/05/19 07:45:23;;;;;;;20.33;16.73;;;16.90;68.80;;;;;;5048666;28;20063;-74
2021/05/19 07:47:49;;;;;;;23.30;15.25;;;16.90;68.70;;;;;;5062386;28;20028;-75
2021/05/19 07:50:15;;;;;;;22.67;14.57;;;17.00;69.00;;;;;;5055064;28;20036;-75
2021/05/19 07:52:40;;;;;;;21.35;14.13;;;17.00;68.80;;;;;;5050140;28;20351;-75
2021/05/19 07:55:10;;;;;;;23.10;16.38;;;17.00;68.60;;;;;;5049690;28;20050;-74
2021/05/19 07:57:43;;;;;;;21.58;14.50;;;17.00;68.70;;;;;;5062700;28;20074;-73
2021/05/19 08:00:13;;;;;;;;;;;17.10;68.80;;;;;;5059141;28;20450;-75
2021/05/19 08:02:39;;;;;;;22.55;14.68;;;17.30;68.70;;;;;;5049812;28;19932;-74
2021/05/19 08:05:06;;;;;;;29.67;15.98;;;17.30;68.30;;;;;;5067753;28;20394;-74
2021/05/19 08:07:31;;;;;;;21.90;15.27;;;17.20;68.30;;;;;;5049746;28;20033;-74
2021/05/19 08:09:57;;;;;;;22.50;15.52;;;17.30;68.40;;;;;;5049236;28;20454;-74
2021/05/19 08:12:22;;;;;;;19.92;15.77;;;17.30;68.40;;;;;;5058792;28;20033;-75
2021/05/19 08:14:48;;;;;;;27.90;14.95;;;17.30;68.20;;;;;;5033994;28;20029;-75
2021/05/19 08:17:17;;;;;;;18.20;13.68;;;17.30;68.10;;;;;;5072909;28;20033;-74
2021/05/19 08:19:42;;;;;;;22.08;14.63;;;17.30;68.30;;;;;;5067430;28;20543;-74
2021/05/19 08:22:12;;;;;;;24.48;16.02;;;17.30;68.20;;;;;;5062784;28;20036;-74
2021/05/19 08:24:37;;;;;;;20.90;14.48;;;17.40;68.20;;;;;;5065462;28;20033;-74
2021/05/19 08:27:03;;;;;;;21.05;14.93;;;17.40;68.10;;;;;;5058255;28;20079;-75
2021/05/19 08:29:29;;;;;;;18.13;14.57;;;17.40;68.20;;;;;;5053037;28;20025;-74
2021/05/19 08:31:54;;;;;;;19.60;14.35;;;17.30;68.10;;;;;;5096397;28;20366;-75
2021/05/19 08:34:20;;;;;;;22.42;13.57;;;17.20;68.00;;;;;;5071928;28;20033;-75
2021/05/19 08:36:45;;;;;;;16.55;12.75;;;17.10;68.10;;;;;;5072639;28;20024;-75
2021/05/19 08:39:11;;;;;;;17.95;13.30;;;17.10;68.10;;;;;;5071104;28;20412;-74
2021/05/19 08:41:38;;;;;;;18.92;12.85;;;17.10;67.70;;;;;;5067662;28;20025;-75
2021/05/19 08:44:05;;;;;;;18.65;11.80;;;17.20;67.10;;;;;;5095970;28;20566;-74
2021/05/19 08:46:33;;;;;;;15.75;12.80;;;17.10;67.10;;;;;;5061527;28;20025;-74
2021/05/19 08:49:04;;;;;;;18.45;13.32;;;17.20;67.30;;;;;;5049539;28;20032;-74
2021/05/19 08:51:30;;;;;;;19.80;13.45;;;17.30;67.30;;;;;;5062392;28;20112;-74
2021/05/19 08:53:55;;;;;;;22.10;14.73;;;17.40;67.10;;;;;;5052063;28;20133;-74
2021/05/19 08:56:21;;;;;;;20.23;14.27;;;17.60;66.80;;;;;;5055506;28;20028;-74
2021/05/19 08:58:47;;;;;;;20.80;12.90;;;17.90;66.40;;;;;;5069492;28;20032;-75
2021/05/19 09:01:26;;;;;;;18.17;13.77;;;18.30;65.90;;;;;;5052216;28;20524;-73
2021/05/19 09:04:05;;;;;;;18.58;13.52;;;18.60;64.70;;;;;;5058262;28;20518;-72
2021/05/19 09:06:31;;;;;;;18.80;13.10;;;18.80;63.80;;;;;;5053202;28;20033;-72
2021/05/19 09:08:56;;;;;;;18.58;13.43;;;19.00;63.20;;;;;;5065464;28;20057;-73
2021/05/19 09:11:22;;;;;;;20.17;14.18;;;19.10;61.80;;;;;;5089904;28;20045;-72
2021/05/19 09:13:48;;;;;;;19.60;13.73;;;19.30;61.70;;;;;;5050405;28;20041;-73
2021/05/19 09:16:31;;;;;;;21.20;13.68;;;19.50;61.30;;;;;;5051067;28;20090;-72
2021/05/19 09:18:57;;;;;;;;;;;19.70;61.00;;;;;;5062172;28;20028;-73
2021/05/19 09:21:33;;;;;;;17.30;12.40;;;20.40;59.80;;;;;;5063086;28;19916;-73
2021/05/19 09:24:03;;;;;;;18.27;12.50;;;20.90;58.80;;;;;;5049246;28;20522;-73
2021/05/19 09:26:28;;;;;;;16.42;11.32;;;21.40;57.40;;;;;;5054971;28;20418;-74
2021/05/19 09:29:14;;;;;;;16.20;12.48;;;21.70;56.40;;;;;;5049367;28;20029;-73
2021/05/19 09:31:49;;;;;;;18.42;13.25;;;21.90;55.90;;;;;;5078672;28;20391;-74
2021/05/19 09:34:29;;;;;;;16.33;12.55;;;21.90;55.10;;;;;;5051501;28;20032;-74
2021/05/19 09:37:24;;;;;;;16.85;12.15;;;22.00;54.50;;;;;;5053706;28;20028;-74
2021/05/19 09:40:00;;;;;;;15.23;12.10;;;22.20;55.40;;;;;;5067347;28;20033;-75
2021/05/19 09:42:35;;;;;;;16.58;11.57;;;22.50;54.40;;;;;;5058451;28;20090;-74
2021/05/19 09:45:17;;;;;;;14.60;10.88;;;22.50;54.20;;;;;;5068453;28;20093;-75
2021/05/19 09:47:44;;;;;;;15.52;11.98;;;22.40;54.70;;;;;;5054194;28;20072;-74
2021/05/19 09:50:12;;;;;;;16.60;12.40;;;22.20;54.50;;;;;;5050358;28;20075;-73
2021/05/19 09:52:39;;;;;;;18.58;13.25;;;21.90;53.60;;;;;;5050190;28;20024;-73
2021/05/19 09:55:07;;;;;;;18.80;12.55;;;21.50;54.20;;;;;;5049625;28;20071;-73
2021/05/19 09:57:44;;;;;;;15.90;12.55;;;21.20;55.20;;;;;;5068493;28;20040;-73
2021/05/19 10:00:12;;;;;;;24.83;12.93;;;20.70;56.30;;;;;;5069038;28;20518;-73
2021/05/19 10:02:40;;;;;;;17.60;11.85;;;20.60;56.80;;;;;;5058705;28;20036;-73
2021/05/19 10:05:14;;;;;;;18.63;12.75;;;20.60;57.00;;;;;;5051296;28;20030;-73
2021/05/19 10:07:40;;;;;;;16.63;13.02;;;21.00;57.20;;;;;;5061708;28;20032;-72
2021/05/19 10:10:07;;;;;;;14.68;12.00;;;21.70;55.90;;;;;;5070592;28;20052;-73
2021/05/19 10:12:33;;;;;;;14.50;11.75;;;22.30;53.90;;;;;;5056273;28;20467;-73
2021/05/19 10:15:03;;;;;;;17.23;11.63;;;22.70;52.80;;;;;;5058205;28;20060;-73
2021/05/19 10:17:29;;;;;;;14.25;11.27;;;22.80;53.00;;;;;;5056269;28;20028;-73
2021/05/19 10:19:58;;;;;;;14.93;11.20;;;22.80;53.30;;;;;;5050804;28;20086;-73
2021/05/19 10:22:28;;;;;;;15.20;10.60;;;22.80;53.90;;;;;;5060975;28;20029;-73
2021/05/19 10:27:47;;;;;;;13.02;9.55;;;22.70;53.70;;;;;;5062062;28;20051;-74
2021/05/19 10:30:31;;;;;;;14.70;10.05;;;22.90;53.90;;;;;;5062422;28;20025;-73
2021/05/19 10:32:56;;;;;;;13.63;9.98;;;23.30;53.00;;;;;;5050320;28;20031;-74
2021/05/19 10:35:35;;;;;;;15.60;11.15;;;23.60;50.90;;;;;;5058976;28;20119;-74
2021/05/19 10:38:23;;;;;;;14.35;11.38;;;23.30;49.70;;;;;;5066351;28;20064;-73
2021/05/19 10:40:53;;;;;;;14.35;10.52;;;22.80;51.10;;;;;;5056565;28;20029;-73
2021/05/19 10:43:20;;;;;;;18.05;11.02;;;22.40;52.20;;;;;;5050403;28;20033;-73
2021/05/19 10:45:52;;;;;;;15.95;11.63;;;22.20;53.10;;;;;;5055834;28;20038;-74
2021/05/19 10:48:32;;;;;;;13.73;9.95;;;22.20;53.90;;;;;;5058959;28;20056;-74
2021/05/19 10:51:04;;;;;;;13.32;10.30;;;22.20;53.80;;;;;;5058312;28;20479;-74
2021/05/19 10:59:15;;;;;;;2.78;1.65;;;21.10;49.80;;;;;;5055006;28;20036;-75
2021/05/19 11:01:42;;;;;;;5.07;1.40;;;20.20;51.30;;;;;;5049601;28;20033;-75
2021/05/19 11:04:19;;;;;;;2.28;1.30;;;19.60;52.90;;;;;;5063464;28;20138;-74
2021/05/19 11:06:57;;;;;;;1.45;0.93;;;19.00;53.40;;;;;;5054040;28;20435;-74
2021/05/19 11:09:30;;;;;;;2.97;1.05;;;18.50;54.00;;;;;;5064022;28;20045;-73
2021/05/19 11:12:21;;;;;;;1.60;0.93;;;18.00;55.80;;;;;;5063699;28;20052;-74
2021/05/19 11:15:00;;;;;;;2.05;0.88;;;17.50;58.20;;;;;;5052753;28;20025;-75
2021/05/19 11:17:33;;;;;;;1.27;0.88;;;17.20;59.70;;;;;;5050209;28;20044;-74
2021/05/19 11:20:03;;;;;;;4.20;1.02;;;16.90;62.00;;;;;;5062257;28;20040;-74
2021/05/19 11:22:28;;;;;;;1.52;1.02;;;16.60;63.20;;;;;;5050401;28;20124;-75
2021/05/19 11:24:59;;;;;;;5.80;1.55;;;16.20;64.20;;;;;;5070098;28;20119;-75
2021/05/19 11:27:30;;;;;;;3.45;1.25;;;15.80;65.40;;;;;;5057001;28;20029;-75
2021/05/19 11:29:57;;;;;;;2.90;1.42;;;15.60;66.60;;;;;;5052884;28;20056;-76
2021/05/19 11:32:27;;;;;;;4.43;1.80;;;15.50;67.50;;;;;;5050541;28;20116;-75
2021/05/19 11:35:09;;;;;;;2.05;1.02;;;15.40;68.20;;;;;;5039433;28;20025;-75
2021/05/19 11:37:35;;;;;;;1.73;1.02;;;15.40;69.00;;;;;;5054639;28;20051;-74
2021/05/19 11:40:04;;;;;;;3.30;1.20;;;15.30;69.20;;;;;;5064946;28;20486;-75
2021/05/19 11:42:30;;;;;;;2.75;1.17;;;15.10;69.80;;;;;;5060302;28;20033;-76
2021/05/19 11:45:02;;;;;;;2.13;1.10;;;15.10;70.30;;;;;;5066696;28;20046;-73
2021/05/19 11:47:31;;;;;;;1.60;1.10;;;15.10;70.70;;;;;;5058452;28;20080;-76
2021/05/19 11:50:06;;;;;;;3.80;1.42;;;15.00;70.70;;;;;;5057219;28;20037;-76
2021/05/19 11:52:43;;;;;;;4.65;1.45;;;14.90;71.20;;;;;;5052416;28;20112;-76
2021/05/19 11:55:28;;;;;;;2.05;1.02;;;14.80;71.50;;;;;;5067302;28;20036;-76
2021/05/19 11:58:08;;;;;;;2.13;1.15;;;14.80;71.70;;;;;;5055292;28;20025;-76
2021/05/19 12:00:49;;;;;;;2.03;1.10;;;14.80;71.80;;;;;;5052830;28;20031;-76
2021/05/19 12:03:17;;;;;;;3.03;1.42;;;14.80;72.40;;;;;;5064592;28;20064;-75
2021/05/19 12:05:50;;;;;;;3.72;1.20;;;15.00;72.40;;;;;;5071911;28;20036;-75
2021/05/19 12:08:18;;;;;;;3.45;1.33;;;15.00;72.50;;;;;;5057279;28;20174;-76
2021/05/19 12:10:45;;;;;;;2.78;1.13;;;15.10;72.30;;;;;;5069730;28;20111;-76
2021/05/19 12:13:12;;;;;;;3.17;1.27;;;15.10;72.30;;;;;;5059253;28;20025;-76
2021/05/19 12:15:39;;;;;;;2.53;1.20;;;15.20;72.20;;;;;;5054597;28;20067;-75
2021/05/19 12:18:08;;;;;;;2.90;1.20;;;15.20;72.00;;;;;;5058766;28;20041;-76
2021/05/19 12:20:34;;;;;;;4.18;1.33;;;15.30;71.90;;;;;;5066677;28;20033;-76
2021/05/19 12:23:03;;;;;;;1.63;1.08;;;15.40;72.30;;;;;;5060966;28;20111;-76
2021/05/19 12:25:34;;;;;;;4.10;1.58;;;15.50;72.50;;;;;;5071526;28;20448;-75
2021/05/19 12:28:04;;;;;;;3.17;1.30;;;15.60;72.60;;;;;;5071946;28;20055;-76
2021/05/19 12:30:45;;;;;;;2.33;1.10;;;15.80;72.50;;;;;;5072609;28;20032;-76
2021/05/19 12:33:13;;;;;;;2.05;1.20;;;15.90;72.50;;;;;;5064443;28;20029;-76
2021/05/19 12:35:45;;;;;;;2.65;1.17;;;16.10;72.30;;;;;;5051991;28;20090;-76
2021/05/19 12:38:11;;;;;;;3.92;1.40;;;16.20;72.50;;;;;;5061300;28;20029;-74
2021/05/19 12:40:39;;;;;;;5.22;1.70;;;16.30;71.90;;;;;;5069960;28;20524;-74
2021/05/19 12:43:07;;;;;;;2.75;1.23;;;16.40;71.80;;;;;;5059590;28;20029;-74
2021/05/19 12:45:38;;;;;;;2.88;1.40;;;16.40;71.80;;;;;;5053088;28;20040;-74
2021/05/19 12:48:09;;;;;;;3.13;1.55;;;16.50;71.80;;;;;;5067670;28;20024;-75